Sunday, January 20, 2019, 7:41 AM GMT
Back to Local

CYQM, Moncton, N. B.

Location: , , Canada Lat: 46.117
Local Time: 7:41 AM GMT ( 7:41 GMT) Lon: -64.683
Time Zone: GMT Elev: 232 ft

Show me the last for .
Show Decoded

2019-01-20 07:00 METAR CYQM 200700Z 03007KT 10SM -SN BKN058 M17/M20 A3039 RMK SC7 SLP298 =
2019-01-20 06:00 METAR CYQM 200600Z 01008KT 6SM -SN SCT027 BKN033 M17/M20 A3039 RMK SC3SC4 SLP301
                 =
2019-01-20 05:00 METAR CYQM 200500Z 01007KT 6SM -SN BKN035 OVC045 M17/M20 A3041 RMK SC5SC3 SLP305
                 =
2019-01-20 04:00 METAR CYQM 200400Z 35005KT 8SM -SN BKN036 OVC048 M16/M21 A3041 RMK SC5SC3 SLP306
                 =
2019-01-20 03:35 METAR CYQM 200335Z 36005KT 15SM -SN SCT042 OVC058 M16/M22 A3040 RMK SC4SC4
                 SLP304 =
2019-01-20 03:00 METAR CYQM 200300Z 36005KT 15SM FEW067 OVC082 M16/M22 A3040 RMK AS2AS6 SLP302 =
2019-01-20 02:00 METAR CYQM 200200Z 01006KT 15SM OVC090 M15/M22 A3040 RMK AS8 SLP303 =
2019-01-20 01:00 METAR CYQM 200100Z 35006KT 15SM OVC110 M15/M22 A3041 RMK AS8 SLP305 =
2019-01-20 00:00 METAR CYQM 200000Z 35005KT 15SM OVC120 M15/M21 A3040 RMK AS8 SLP304 =
2019-01-19 23:00 METAR CYQM 192300Z 33007KT 15SM OVC120 M15/M22 A3037 RMK AS8 SLP294 =
2019-01-19 22:00 METAR CYQM 192200Z 30003KT 15SM SCT160 BKN220 M15/M22 A3035 RMK AS3CS4 SLP284 =
2019-01-19 21:00 METAR CYQM 192100Z 31005KT 15SM FEW090 BKN220 M15/M22 A3031 RMK AC1CI6 SLP271 =
2019-01-19 20:00 METAR CYQM 192000Z 29005KT 15SM FEW050 FEW100 BKN240 M14/M23 A3030 RMK SC1AC1CI5
                 SLP269 =
2019-01-19 19:00 METAR CYQM 191900Z 26007KT 15SM BKN240 M14/M22 A3030 RMK CI7 SLP266 =
2019-01-19 18:00 METAR CYQM 191800Z 31007KT 15SM FEW030 BKN240 M14/M23 A3028 RMK SC1CI6 SC TR
                 CONTRAILS SLP259 =
2019-01-19 17:00 METAR CYQM 191700Z 29011KT 15SM FEW030 FEW220 M14/M23 A3028 RMK SC1CI1 SC TR
                 SLP261 =
2019-01-19 16:00 METAR CYQM 191600Z 31011KT 15SM FEW030 FEW220 M14/M23 A3028 RMK SC1CI1 SC TR CI
                 TR SLP261 =
2019-01-19 15:00 METAR CYQM 191500Z 31014KT 15SM FEW030 FEW240 M15/M23 A3026 RMK SC1CI1 SC TR
                 SLP255 =
2019-01-19 14:00 METAR CYQM 191400Z 30013G18KT 15SM FEW025 FEW240 M15/M23 A3025 RMK SC1CI1 SC TR
                 SLP250 =
2019-01-19 13:00 METAR CYQM 191300Z 30011G18KT 15SM FEW025 SCT240 M15/M23 A3021 RMK SC1CI4 SC TR
                 SLP238 =
2019-01-19 12:00 METAR CYQM 191200Z 28013G20KT 15SM FEW017 FEW025 SCT240 M14/M24 A3018 RMK
                 CF1SC1CI4 CF TR SC TR PRESRR SLP227 =
2019-01-19 11:00 METAR CYQM 191100Z 30013G20KT 15SM FEW023 M12/M17 A3012 RMK SC2 PRESRR SLP207 =
2019-01-19 10:53 METAR CYQM 191053Z 31012G21KT 15SM FEW025 M12/M17 A3011 RMK SC2 SLP204 =
2019-01-19 10:27 METAR CYQM 191027Z 29011G18KT 10SM -SHSN BKN025 M10/M16 A3008 RMK SC5 CVCTV CLD
                 EMBD SLP193 =
2019-01-19 10:00 METAR CYQM 191000Z 28014KT 15SM FEW034 M10/M16 A3007 RMK SC2 PRESRR SLP189 =
2019-01-19 09:00 METAR CYQM 190900Z 28014G19KT 15SM DRSN SCT028 M08/M16 A3003 RMK SC3 PRESRR
                 SLP176 =
2019-01-19 08:00 METAR CYQM 190800Z 25018G32KT 15SM DRSN FEW033 M05/M13 A2997 RMK SC2 SLP154 =

Support USWX by starting your Amazon purchase here.